createdAt,value
2023-05-21T00:01:35.663Z,25.00
2023-05-21T00:04:06.373Z,22.50
2023-05-21T00:06:38.267Z,24.00
2023-05-21T00:09:06.777Z,24.60
2023-05-21T00:11:35.166Z,21.20
2023-05-21T00:14:03.529Z,21.90
2023-05-21T00:16:31.870Z,22.20
2023-05-21T00:19:00.228Z,20.90
2023-05-21T00:21:29.912Z,20.00
2023-05-21T00:23:59.029Z,21.60
2023-05-21T00:26:27.353Z,21.30
2023-05-21T00:28:57.360Z,23.00
2023-05-21T00:31:25.503Z,23.80
2023-05-21T00:33:54.202Z,22.70
2023-05-21T00:36:24.197Z,22.60
2023-05-21T00:38:52.806Z,20.80
2023-05-21T00:41:23.654Z,20.80
2023-05-21T00:43:53.151Z,21.70
2023-05-21T00:46:22.773Z,22.80
2023-05-21T00:48:52.512Z,21.70
2023-05-21T00:51:21.798Z,21.30
2023-05-21T00:53:53.177Z,21.80
2023-05-21T00:56:24.734Z,21.70
2023-05-21T00:58:59.631Z,22.00
2023-05-21T01:01:28.006Z,21.70
2023-05-21T01:03:58.034Z,20.60
2023-05-21T01:06:26.709Z,22.10
2023-05-21T01:08:57.132Z,21.40
2023-05-21T01:11:37.356Z,22.30
2023-05-21T01:14:10.219Z,23.60
2023-05-21T01:16:41.166Z,24.30
2023-05-21T01:19:14.420Z,23.20
2023-05-21T01:21:48.438Z,20.70
2023-05-21T01:24:16.962Z,21.80
2023-05-21T01:26:46.594Z,23.80
2023-05-21T01:29:15.186Z,26.20
2023-05-21T01:32:10.033Z,24.10
2023-05-21T01:35:06.803Z,21.60
2023-05-21T01:37:41.719Z,23.50
2023-05-21T01:42:58.623Z,28.30
2023-05-21T01:45:31.577Z,29.00
2023-05-21T01:48:00.923Z,31.60
2023-05-21T01:50:32.186Z,31.70
2023-05-21T01:53:06.099Z,29.40
2023-05-21T01:55:36.062Z,27.80
2023-05-21T01:58:04.616Z,26.70
2023-05-21T02:00:34.801Z,27.90
2023-05-21T02:03:03.493Z,27.90
2023-05-21T02:05:31.813Z,29.20
2023-05-21T02:08:00.274Z,30.80
2023-05-21T02:10:28.741Z,32.50
2023-05-21T02:12:57.017Z,34.10
2023-05-21T02:15:25.990Z,34.90
2023-05-21T02:17:55.923Z,32.40
2023-05-21T02:20:24.224Z,34.70
2023-05-21T02:22:52.623Z,34.80
2023-05-21T02:25:21.157Z,31.60
2023-05-21T02:27:53.812Z,31.10
2023-05-21T02:30:22.446Z,33.40
2023-05-21T02:32:50.908Z,31.70
2023-05-21T02:35:19.588Z,31.80
2023-05-21T02:37:49.131Z,33.40
2023-05-21T02:40:17.445Z,32.80
2023-05-21T02:42:45.897Z,31.40
2023-05-21T02:45:15.745Z,29.80
2023-05-21T02:47:44.598Z,27.60
2023-05-21T02:50:15.172Z,27.30
2023-05-21T02:52:46.985Z,27.80
2023-05-21T02:55:15.372Z,29.20
2023-05-21T02:57:43.930Z,29.70
2023-05-21T03:00:13.528Z,26.70
2023-05-21T03:02:43.490Z,26.50
2023-05-21T03:05:12.319Z,26.10
2023-05-21T03:07:42.080Z,24.40
2023-05-21T03:10:11.103Z,26.20
2023-05-21T03:12:39.457Z,27.00
2023-05-21T03:15:08.333Z,29.10
2023-05-21T03:17:36.813Z,28.50
2023-05-21T03:20:05.843Z,27.00
2023-05-21T03:22:34.663Z,29.90
2023-05-21T03:25:05.708Z,30.30
2023-05-21T03:27:33.955Z,31.30
2023-05-21T03:30:06.825Z,31.30
2023-05-21T03:32:41.576Z,31.10
2023-05-21T03:35:11.247Z,28.40
2023-05-21T03:37:39.772Z,29.40
2023-05-21T03:40:08.723Z,28.70
2023-05-21T03:42:37.209Z,28.60
2023-05-21T03:45:06.675Z,30.60
2023-05-21T03:47:58.442Z,32.40
2023-05-21T03:50:28.060Z,31.40
2023-05-21T03:52:56.328Z,30.70
2023-05-21T03:55:25.306Z,30.00
2023-05-21T03:57:53.607Z,31.70
2023-05-21T04:00:24.488Z,30.70
2023-05-21T04:02:53.199Z,31.00
2023-05-21T04:05:21.733Z,33.20
2023-05-21T04:07:50.636Z,31.60
2023-05-21T04:10:23.332Z,33.50
2023-05-21T04:12:52.771Z,31.70
2023-05-21T04:15:23.389Z,31.50
2023-05-21T04:17:52.740Z,33.00
2023-05-21T04:20:21.579Z,31.50
2023-05-21T04:22:50.147Z,31.30
2023-05-21T04:25:20.485Z,31.70
2023-05-21T04:27:50.330Z,32.40
2023-05-21T04:30:22.823Z,35.90
2023-05-21T04:32:52.848Z,36.30
2023-05-21T04:35:21.741Z,34.80
2023-05-21T04:37:50.651Z,36.30
2023-05-21T04:40:24.495Z,36.20
2023-05-21T04:42:53.082Z,34.00
2023-05-21T04:45:24.768Z,31.90
2023-05-21T04:47:53.980Z,31.40
2023-05-21T04:50:23.294Z,30.80
2023-05-21T04:52:51.593Z,30.10
2023-05-21T04:55:20.140Z,29.50
2023-05-21T04:57:48.490Z,28.70
2023-05-21T05:00:17.725Z,28.10
2023-05-21T05:02:47.359Z,26.90
2023-05-21T05:05:15.988Z,27.00
2023-05-21T05:07:44.348Z,26.70
2023-05-21T05:10:12.722Z,25.50
2023-05-21T05:12:41.162Z,23.30
2023-05-21T05:15:09.809Z,23.20
2023-05-21T05:17:40.057Z,20.90
2023-05-21T05:20:10.232Z,22.00
2023-05-21T05:22:39.283Z,21.40
2023-05-21T05:25:08.045Z,20.50
2023-05-21T05:27:38.382Z,20.10
2023-05-21T05:30:07.968Z,21.00
2023-05-21T05:32:36.662Z,18.80
2023-05-21T05:35:05.502Z,19.90
2023-05-21T05:37:34.138Z,18.60
2023-05-21T05:40:02.500Z,18.50
2023-05-21T05:42:31.042Z,17.30
2023-05-21T05:45:00.399Z,17.90
2023-05-21T05:47:29.027Z,17.00
2023-05-21T05:49:59.353Z,15.90
2023-05-21T05:52:27.722Z,16.10
2023-05-21T05:54:55.987Z,14.60
2023-05-21T05:57:24.248Z,12.70
2023-05-21T05:59:54.031Z,14.20
2023-05-21T06:02:22.475Z,15.30
2023-05-21T06:04:50.820Z,14.10
2023-05-21T06:07:19.577Z,13.60
2023-05-21T06:09:47.857Z,12.30
2023-05-21T06:12:16.697Z,13.20
2023-05-21T06:14:46.676Z,12.10
2023-05-21T06:17:15.547Z,11.80
2023-05-21T06:19:45.341Z,13.40
2023-05-21T06:22:13.689Z,12.80
2023-05-21T06:24:42.068Z,12.30
2023-05-21T06:27:11.250Z,11.90
2023-05-21T06:29:41.041Z,13.30
2023-05-21T06:32:09.736Z,12.40
2023-05-21T06:34:38.235Z,13.30
2023-05-21T06:37:06.596Z,12.70
2023-05-21T06:39:35.377Z,11.30
2023-05-21T06:42:04.455Z,11.40
2023-05-21T06:44:53.458Z,12.30
2023-05-21T06:47:27.566Z,12.00
2023-05-21T06:49:56.698Z,11.20
2023-05-21T06:52:27.255Z,10.70
2023-05-21T06:54:56.231Z,10.50
2023-05-21T06:57:25.199Z,11.40
2023-05-21T06:59:53.562Z,10.70
2023-05-21T07:02:21.894Z,11.70
2023-05-21T07:04:50.500Z,11.00
2023-05-21T07:07:18.917Z,11.50
2023-05-21T07:09:47.364Z,10.30
2023-05-21T07:12:16.287Z,10.60
2023-05-21T07:14:44.770Z,10.60
2023-05-21T07:17:13.022Z,9.90
2023-05-21T07:19:41.372Z,10.10
2023-05-21T07:22:12.671Z,10.60
2023-05-21T07:24:41.617Z,9.40
2023-05-21T07:27:24.709Z,9.90
2023-05-21T07:29:54.016Z,9.70
2023-05-21T07:32:23.002Z,10.00
2023-05-21T07:34:54.194Z,10.00
2023-05-21T07:37:25.631Z,9.90
2023-05-21T07:39:57.073Z,9.00
2023-05-21T07:42:26.841Z,9.50
2023-05-21T07:44:56.163Z,9.60
2023-05-21T07:47:24.816Z,8.90
2023-05-21T07:49:53.380Z,9.00
2023-05-21T07:52:22.387Z,9.20
2023-05-21T07:54:50.803Z,9.60
2023-05-21T07:57:19.517Z,9.60
2023-05-21T07:59:53.288Z,8.30
2023-05-21T08:02:22.669Z,8.60
2023-05-21T08:04:52.696Z,8.10
2023-05-21T08:07:22.305Z,8.00
2023-05-21T08:09:51.597Z,8.30
2023-05-21T08:12:20.086Z,8.30
2023-05-21T08:14:48.447Z,7.30
2023-05-21T08:17:17.464Z,7.30
2023-05-21T08:19:45.853Z,7.30
2023-05-21T08:22:14.191Z,7.00
2023-05-21T08:24:44.121Z,8.00
2023-05-21T08:27:12.389Z,7.40
2023-05-21T08:29:40.606Z,6.70
2023-05-21T08:32:10.279Z,7.90
2023-05-21T08:34:38.753Z,7.30
2023-05-21T08:37:21.689Z,6.90
2023-05-21T08:40:01.619Z,6.90
2023-05-21T08:42:37.146Z,7.30
2023-05-21T08:45:07.817Z,6.20
2023-05-21T08:47:37.205Z,6.50
2023-05-21T08:50:09.811Z,6.10
2023-05-21T08:52:38.306Z,6.60
2023-05-21T08:55:08.593Z,6.90
2023-05-21T08:57:43.884Z,7.10
2023-05-21T09:00:12.930Z,7.10
2023-05-21T09:02:44.220Z,6.80
2023-05-21T09:05:15.673Z,6.20
2023-05-21T09:07:55.945Z,6.10
2023-05-21T09:10:55.930Z,6.20
2023-05-21T09:13:29.356Z,5.30
2023-05-21T09:15:57.804Z,5.50
2023-05-21T09:18:29.617Z,5.40
2023-05-21T09:21:25.282Z,5.00
2023-05-21T09:26:26.884Z,4.80
2023-05-21T09:29:02.464Z,5.10
2023-05-21T09:31:33.011Z,5.50
2023-05-21T09:34:03.917Z,5.60
2023-05-21T09:36:38.723Z,4.50
2023-05-21T09:39:07.045Z,4.10
2023-05-21T09:41:38.473Z,4.80
2023-05-21T09:44:06.957Z,4.90
2023-05-21T09:46:41.107Z,5.80
2023-05-21T09:49:31.461Z,4.90
2023-05-21T09:52:01.124Z,4.50
2023-05-21T09:54:34.182Z,4.10
2023-05-21T09:57:02.993Z,4.10
2023-05-21T09:59:39.198Z,3.50
2023-05-21T10:02:24.718Z,3.80
2023-05-21T10:04:54.866Z,4.00
2023-05-21T10:07:26.638Z,4.00
2023-05-21T10:09:57.311Z,4.70
2023-05-21T10:12:27.812Z,4.50
2023-05-21T10:15:09.746Z,3.90
2023-05-21T10:17:39.775Z,4.00
2023-05-21T10:20:11.190Z,4.10
2023-05-21T10:22:41.198Z,4.10
2023-05-21T10:25:10.375Z,4.20
2023-05-21T10:27:39.587Z,3.50
2023-05-21T10:30:08.834Z,3.60
2023-05-21T10:32:40.273Z,3.50
2023-05-21T10:35:10.304Z,4.20
2023-05-21T10:37:39.706Z,3.90
2023-05-21T10:40:08.767Z,4.10
2023-05-21T10:43:26.536Z,4.10
2023-05-21T10:46:36.833Z,4.20
2023-05-21T10:49:25.627Z,4.20
2023-05-21T10:52:18.477Z,4.10
2023-05-21T10:55:17.837Z,3.90
2023-05-21T10:57:49.007Z,4.10
2023-05-21T11:00:20.691Z,4.60
2023-05-21T11:02:52.350Z,4.10
2023-05-21T11:05:52.756Z,4.10
2023-05-21T11:08:23.670Z,3.80
2023-05-21T11:10:58.457Z,2.90
2023-05-21T11:13:31.481Z,3.70
2023-05-21T11:15:59.910Z,4.40
2023-05-21T11:18:34.281Z,4.20
2023-05-21T11:21:17.263Z,4.00
2023-05-21T11:23:58.422Z,3.70
2023-05-21T11:26:29.600Z,3.60
2023-05-21T11:29:09.658Z,3.90
2023-05-21T11:31:39.489Z,4.00
2023-05-21T11:34:11.329Z,3.70
2023-05-21T11:36:45.754Z,4.20
2023-05-21T11:39:22.376Z,4.40
2023-05-21T11:42:04.146Z,3.90
2023-05-21T11:44:47.740Z,4.00
2023-05-21T11:47:18.357Z,3.90
2023-05-21T11:49:47.209Z,3.30
2023-05-21T11:52:15.813Z,3.60
2023-05-21T11:54:55.526Z,4.40
2023-05-21T11:57:31.350Z,3.20
2023-05-21T12:00:01.896Z,3.80
2023-05-21T12:02:32.767Z,3.70
2023-05-21T12:05:01.453Z,3.30
2023-05-21T12:07:30.100Z,3.90
2023-05-21T12:09:59.126Z,3.20
2023-05-21T12:12:35.621Z,3.60
2023-05-21T12:15:11.637Z,3.70
2023-05-21T12:17:40.013Z,3.50
2023-05-21T12:20:10.981Z,3.50
2023-05-21T12:22:43.825Z,4.80
2023-05-21T12:25:12.430Z,3.70
2023-05-21T12:27:42.322Z,3.70
2023-05-21T12:30:11.207Z,3.00
2023-05-21T12:32:44.621Z,3.90
2023-05-21T12:35:24.421Z,3.70
2023-05-21T12:37:53.326Z,3.40
2023-05-21T12:40:22.539Z,3.80
2023-05-21T12:42:51.782Z,4.60
2023-05-21T12:45:22.823Z,3.70
2023-05-21T12:47:56.597Z,3.50
2023-05-21T12:50:26.780Z,5.20
2023-05-21T12:52:56.617Z,4.10
2023-05-21T12:55:28.730Z,3.60
2023-05-21T12:58:03.984Z,3.20
2023-05-21T13:00:33.562Z,3.50
2023-05-21T13:03:04.913Z,3.40
2023-05-21T13:05:33.473Z,3.20
2023-05-21T13:08:01.858Z,3.20
2023-05-21T13:10:30.503Z,3.20
2023-05-21T13:12:58.901Z,3.60
2023-05-21T13:15:27.242Z,3.10
2023-05-21T13:17:57.211Z,4.20
2023-05-21T13:20:27.492Z,4.40
2023-05-21T13:22:56.828Z,3.40
2023-05-21T13:25:29.825Z,3.20
2023-05-21T13:28:03.060Z,4.10
2023-05-21T13:30:33.536Z,3.00
2023-05-21T13:33:02.839Z,3.70
2023-05-21T13:35:31.299Z,3.80
2023-05-21T13:37:59.652Z,3.40
2023-05-21T13:40:28.331Z,3.90
2023-05-21T13:42:56.890Z,4.00
2023-05-21T13:45:29.459Z,4.20
2023-05-21T13:47:58.351Z,3.70
2023-05-21T13:50:26.892Z,4.30
2023-05-21T13:52:55.458Z,4.10
2023-05-21T13:55:23.790Z,3.60
2023-05-21T13:57:52.222Z,3.70
2023-05-21T14:00:20.716Z,3.70
2023-05-21T14:02:50.169Z,3.70
2023-05-21T14:05:18.868Z,3.50
2023-05-21T14:07:48.488Z,3.90
2023-05-21T14:10:17.142Z,3.50
2023-05-21T14:12:46.394Z,3.30
2023-05-21T14:15:14.956Z,3.90
2023-05-21T14:17:43.285Z,3.80
2023-05-21T14:20:12.117Z,4.50
2023-05-21T14:22:40.403Z,4.50
2023-05-21T14:25:09.288Z,7.10
2023-05-21T14:27:38.511Z,6.30
2023-05-21T14:30:08.028Z,3.20
2023-05-21T14:32:36.668Z,3.20
2023-05-21T14:35:05.692Z,3.30
2023-05-21T14:37:34.108Z,3.60
2023-05-21T14:40:03.450Z,3.40
2023-05-21T14:42:32.079Z,2.90
2023-05-21T14:45:16.870Z,4.70
2023-05-21T14:47:47.853Z,3.90
2023-05-21T14:50:17.502Z,3.20
2023-05-21T14:52:46.479Z,3.40
2023-05-21T14:55:17.071Z,4.40
2023-05-21T14:57:45.617Z,4.40
2023-05-21T15:00:15.239Z,3.90
2023-05-21T15:02:43.702Z,4.00
2023-05-21T15:05:12.493Z,4.00
2023-05-21T15:07:40.841Z,19.50
2023-05-21T15:10:10.178Z,10.70
2023-05-21T15:12:40.202Z,11.90
2023-05-21T15:15:08.958Z,5.60
2023-05-21T15:17:37.315Z,8.60
2023-05-21T15:20:06.770Z,28.70
2023-05-21T15:22:35.664Z,10.30
2023-05-21T15:25:05.025Z,9.70
2023-05-21T15:27:34.332Z,14.70
2023-05-21T15:30:04.262Z,6.90
2023-05-21T15:32:32.595Z,5.50
2023-05-21T15:35:01.096Z,6.70
2023-05-21T15:37:32.343Z,6.90
2023-05-21T15:40:01.081Z,8.00
2023-05-21T15:42:31.753Z,7.70
2023-05-21T15:45:00.332Z,16.50
2023-05-21T15:47:28.686Z,15.50
2023-05-21T15:49:59.058Z,21.60
2023-05-21T15:52:27.597Z,13.30
2023-05-21T15:54:56.377Z,7.90
2023-05-21T15:57:24.780Z,17.70
2023-05-21T15:59:53.190Z,13.60
2023-05-21T16:02:21.663Z,30.30
2023-05-21T16:04:51.785Z,8.90
2023-05-21T16:07:20.216Z,6.30
2023-05-21T16:09:48.515Z,5.60
2023-05-21T16:12:17.751Z,4.60
2023-05-21T16:14:50.304Z,6.70
2023-05-21T16:17:19.978Z,6.10
2023-05-21T16:19:48.458Z,10.70
2023-05-21T16:22:17.353Z,13.10
2023-05-21T16:24:45.724Z,30.60
2023-05-21T16:27:14.120Z,139.30
2023-05-21T16:29:42.547Z,39.80
2023-05-21T16:32:13.202Z,13.30
2023-05-21T16:34:41.728Z,7.40
2023-05-21T16:37:10.121Z,7.70
2023-05-21T16:39:38.753Z,7.60
2023-05-21T16:42:07.028Z,4.30
2023-05-21T16:44:37.121Z,5.80
2023-05-21T16:47:05.822Z,5.90
2023-05-21T16:49:34.103Z,11.00
2023-05-21T16:52:03.440Z,5.30
2023-05-21T16:54:31.770Z,4.80
2023-05-21T16:57:00.160Z,4.60
2023-05-21T16:59:29.126Z,4.00
2023-05-21T17:01:57.480Z,4.00
2023-05-21T17:04:25.820Z,7.90
2023-05-21T17:06:54.216Z,5.20
2023-05-21T17:09:22.594Z,5.40
2023-05-21T17:11:50.943Z,8.40
2023-05-21T17:14:30.236Z,7.50
2023-05-21T17:17:02.645Z,6.30
2023-05-21T17:19:31.300Z,5.20
2023-05-21T17:21:59.765Z,6.10
2023-05-21T17:24:28.169Z,6.50
2023-05-21T17:26:56.674Z,4.80
2023-05-21T17:29:25.068Z,7.10
2023-05-21T17:31:53.597Z,14.60
2023-05-21T17:34:24.754Z,13.10
2023-05-21T17:36:54.534Z,14.10
2023-05-21T17:39:23.132Z,16.40
2023-05-21T17:41:51.981Z,12.10
2023-05-21T17:44:20.409Z,9.60
2023-05-21T17:46:51.163Z,5.90
2023-05-21T17:49:19.572Z,6.20
2023-05-21T17:51:48.151Z,6.40
2023-05-21T17:54:16.616Z,5.10
2023-05-21T17:56:46.452Z,3.50
2023-05-21T17:59:16.217Z,3.50
2023-05-21T18:01:44.633Z,4.20
2023-05-21T18:04:13.470Z,3.20
2023-05-21T18:06:43.081Z,3.30
2023-05-21T18:09:14.389Z,5.00
2023-05-21T18:11:44.739Z,8.90
2023-05-21T18:14:13.192Z,6.50
2023-05-21T18:16:41.633Z,5.10
2023-05-21T18:19:10.201Z,4.60
2023-05-21T18:21:38.827Z,5.00
2023-05-21T18:24:07.500Z,4.50
2023-05-21T18:26:36.048Z,3.70
2023-05-21T18:29:04.463Z,3.90
2023-05-21T18:31:32.801Z,4.10
2023-05-21T18:34:01.168Z,4.00
2023-05-21T18:36:29.581Z,3.50
2023-05-21T18:38:57.811Z,4.30
2023-05-21T18:41:26.583Z,4.10
2023-05-21T18:43:55.188Z,4.80
2023-05-21T18:46:23.755Z,4.40
2023-05-21T18:48:52.180Z,5.10
2023-05-21T18:51:20.578Z,5.50
2023-05-21T18:53:48.810Z,5.70
2023-05-21T18:56:17.370Z,5.20
2023-05-21T18:58:45.844Z,5.40
2023-05-21T19:01:14.250Z,4.50
2023-05-21T19:03:42.776Z,5.80
2023-05-21T19:06:13.947Z,5.90
2023-05-21T19:08:42.291Z,8.40
2023-05-21T19:11:12.183Z,7.70
2023-05-21T19:13:40.823Z,7.90
2023-05-21T19:16:11.448Z,6.40
2023-05-21T19:18:44.597Z,7.10
2023-05-21T19:21:13.788Z,7.30
2023-05-21T19:23:52.582Z,6.30
2023-05-21T19:26:22.892Z,6.30
2023-05-21T19:28:53.794Z,6.20
2023-05-21T19:31:23.526Z,6.80
2023-05-21T19:33:52.379Z,6.90
2023-05-21T19:36:22.025Z,6.50
2023-05-21T19:38:50.911Z,6.20
2023-05-21T19:41:22.213Z,6.80
2023-05-21T19:43:50.494Z,6.30
2023-05-21T19:46:20.467Z,7.80
2023-05-21T19:48:50.745Z,7.90
2023-05-21T19:51:19.177Z,7.30
2023-05-21T19:53:47.430Z,6.60
2023-05-21T19:56:16.457Z,7.50
2023-05-21T19:58:47.792Z,6.80
2023-05-21T20:01:16.925Z,7.20
2023-05-21T20:03:46.367Z,6.50
2023-05-21T20:06:17.185Z,5.70
2023-05-21T20:08:45.948Z,6.30
2023-05-21T20:11:14.313Z,6.80
2023-05-21T20:13:42.728Z,6.60
2023-05-21T20:16:12.783Z,7.60
2023-05-21T20:18:41.720Z,5.30
2023-05-21T20:21:10.608Z,6.20
2023-05-21T20:23:39.077Z,5.50
2023-05-21T20:26:07.429Z,5.60
2023-05-21T20:28:36.557Z,5.30
2023-05-21T20:31:05.210Z,6.30
2023-05-21T20:33:38.713Z,6.30
2023-05-21T20:36:08.719Z,5.80
2023-05-21T20:38:38.240Z,6.20
2023-05-21T20:41:07.454Z,6.20
2023-05-21T20:43:37.488Z,6.10
2023-05-21T20:46:06.191Z,5.70
2023-05-21T20:48:35.366Z,5.90
2023-05-21T20:51:06.242Z,5.90
2023-05-21T20:53:37.170Z,5.70
2023-05-21T20:56:08.073Z,5.80
2023-05-21T20:58:36.878Z,6.10
2023-05-21T21:01:05.263Z,6.20
2023-05-21T21:03:34.408Z,6.90
2023-05-21T21:06:04.491Z,5.80
2023-05-21T21:08:34.914Z,5.50
2023-05-21T21:11:03.245Z,6.40
2023-05-21T21:13:31.589Z,6.50
2023-05-21T21:15:59.970Z,6.20
2023-05-21T21:18:28.335Z,5.50
2023-05-21T21:20:56.627Z,6.00
2023-05-21T21:23:27.918Z,6.40
2023-05-21T21:25:57.595Z,6.00
2023-05-21T21:28:26.029Z,5.90
2023-05-21T21:30:54.432Z,6.60
2023-05-21T21:33:24.581Z,6.20
2023-05-21T21:35:53.061Z,6.50
2023-05-21T21:38:21.609Z,6.20
2023-05-21T21:40:50.106Z,6.20
2023-05-21T21:43:18.614Z,6.10
2023-05-21T21:45:46.928Z,5.80
2023-05-21T21:48:16.703Z,5.70
2023-05-21T21:50:45.411Z,7.10
2023-05-21T21:53:14.191Z,7.20
2023-05-21T21:55:42.569Z,6.00
2023-05-21T21:58:11.448Z,6.60
2023-05-21T22:00:40.331Z,5.80
2023-05-21T22:03:08.968Z,6.10
2023-05-21T22:05:38.357Z,6.20
2023-05-21T22:08:06.663Z,6.50
2023-05-21T22:10:38.238Z,6.80
2023-05-21T22:13:07.671Z,5.90
2023-05-21T22:15:36.102Z,6.30
2023-05-21T22:18:04.640Z,6.20
2023-05-21T22:20:35.922Z,6.10
2023-05-21T22:23:04.569Z,6.30
2023-05-21T22:25:32.946Z,6.90
2023-05-21T22:28:01.288Z,7.30
2023-05-21T22:30:29.729Z,7.00
2023-05-21T22:32:58.156Z,6.90
2023-05-21T22:35:26.857Z,7.10
2023-05-21T22:37:55.166Z,8.20
2023-05-21T22:40:23.561Z,7.90
2023-05-21T22:42:51.923Z,7.50
2023-05-21T22:45:21.906Z,7.50
2023-05-21T22:47:52.039Z,6.90
2023-05-21T22:50:20.837Z,6.90
2023-05-21T22:52:49.425Z,7.60
2023-05-21T22:55:17.945Z,7.00
2023-05-21T22:57:46.346Z,6.50
2023-05-21T23:00:14.954Z,6.50
2023-05-21T23:02:43.423Z,6.90
2023-05-21T23:05:11.777Z,7.00
2023-05-21T23:07:41.521Z,7.00
2023-05-21T23:10:10.198Z,7.40
2023-05-21T23:12:38.537Z,5.90
2023-05-21T23:15:07.433Z,6.70
2023-05-21T23:17:36.067Z,7.30
2023-05-21T23:20:07.481Z,6.60
2023-05-21T23:22:36.070Z,5.80
2023-05-21T23:25:05.207Z,6.30
2023-05-21T23:27:33.838Z,6.70
2023-05-21T23:30:02.208Z,6.30
2023-05-21T23:32:30.591Z,6.60
2023-05-21T23:34:59.001Z,6.70
2023-05-21T23:37:27.339Z,7.00
2023-05-21T23:39:55.650Z,7.30
2023-05-21T23:42:23.972Z,7.10
2023-05-21T23:44:52.392Z,8.00
2023-05-21T23:47:20.698Z,7.90
2023-05-21T23:49:49.027Z,8.10
2023-05-21T23:52:18.470Z,7.70
2023-05-21T23:54:46.795Z,7.50
2023-05-21T23:57:15.170Z,7.80
2023-05-21T23:59:43.581Z,8.00
